createdAt,value
2018-07-26T00:04:19.045Z,0
2018-07-26T00:14:33.862Z,0
2018-07-26T00:24:48.671Z,0
2018-07-26T00:35:03.427Z,0
2018-07-26T00:45:17.545Z,0
2018-07-26T00:55:33.204Z,0
2018-07-26T01:05:48.061Z,0
2018-07-26T01:16:02.666Z,0
2018-07-26T01:26:17.689Z,0
2018-07-26T01:36:33.312Z,0
2018-07-26T01:46:47.794Z,0
2018-07-26T01:57:02.928Z,0
2018-07-26T02:07:17.607Z,0
2018-07-26T02:17:31.550Z,0
2018-07-26T02:27:45.449Z,0
2018-07-26T02:38:00.629Z,0
2018-07-26T02:48:16.040Z,0
2018-07-26T02:58:31.663Z,0
2018-07-26T03:08:45.793Z,0
2018-07-26T03:19:00.410Z,0
2018-07-26T03:29:15.383Z,0
2018-07-26T03:39:29.541Z,5
2018-07-26T03:49:44.982Z,10
2018-07-26T04:00:00.454Z,20
2018-07-26T04:10:15.321Z,35
2018-07-26T04:20:29.818Z,55
2018-07-26T04:30:45.489Z,75
2018-07-26T04:41:01.229Z,95
2018-07-26T04:51:15.241Z,115
2018-07-26T05:01:29.042Z,140
2018-07-26T05:11:43.710Z,170
2018-07-26T05:21:58.426Z,210
2018-07-26T05:32:14.161Z,215
2018-07-26T05:52:44.369Z,225
2018-07-26T06:02:59.649Z,245
2018-07-26T06:13:14.031Z,310
2018-07-26T06:23:28.269Z,675
2018-07-26T06:33:43.739Z,830
2018-07-26T06:43:58.025Z,655
2018-07-26T06:54:12.666Z,665
2018-07-26T07:04:27.846Z,545
2018-07-26T07:14:42.052Z,1045
2018-07-26T07:24:56.120Z,1145
2018-07-26T07:35:10.545Z,1100
2018-07-26T07:45:25.996Z,1045
2018-07-26T07:55:41.647Z,1080
2018-07-26T08:05:56.414Z,980
2018-07-26T08:16:12.005Z,1245
2018-07-26T08:26:26.437Z,1345
2018-07-26T08:36:42.225Z,1420
2018-07-26T08:46:56.336Z,1550
2018-07-26T08:57:12.269Z,1415
2018-07-26T09:07:26.778Z,1460
2018-07-26T09:17:41.750Z,1410
2018-07-26T09:27:56.617Z,1700
2018-07-26T09:38:12.171Z,1650
2018-07-26T09:48:28.022Z,1410
2018-07-26T09:58:42.551Z,1815
2018-07-26T10:08:58.117Z,1820
2018-07-26T10:19:12.822Z,1820
2018-07-26T10:29:27.157Z,1680
2018-07-26T10:39:41.896Z,1865
2018-07-26T10:49:56.298Z,1805
2018-07-26T11:00:12.104Z,1985
2018-07-26T11:10:26.872Z,1910
2018-07-26T11:20:42.135Z,1915
2018-07-26T11:30:57.858Z,1935
2018-07-26T11:41:12.753Z,1945
2018-07-26T11:51:26.856Z,1915
2018-07-26T12:01:41.075Z,1880
2018-07-26T12:11:55.260Z,1810
2018-07-26T12:22:10.669Z,1660
2018-07-26T12:32:24.876Z,1550
2018-07-26T12:42:40.829Z,1415
2018-07-26T12:52:55.946Z,1210
2018-07-26T13:03:11.685Z,1235
2018-07-26T13:13:27.894Z,1290
2018-07-26T13:23:41.424Z,1865
2018-07-26T13:33:57.299Z,2935
2018-07-26T13:44:12.332Z,595
2018-07-26T13:54:26.896Z,2190
2018-07-26T14:04:41.635Z,2440
2018-07-26T14:14:56.264Z,2310
2018-07-26T14:25:11.981Z,1950
2018-07-26T14:35:26.490Z,1795
2018-07-26T14:45:41.849Z,1760
2018-07-26T14:55:56.855Z,1685
2018-07-26T15:06:11.294Z,1525
2018-07-26T15:16:26.010Z,1470
2018-07-26T15:26:41.828Z,1305
2018-07-26T15:36:57.289Z,1325
2018-07-26T15:47:13.300Z,1220
2018-07-26T15:57:28.710Z,1180
2018-07-26T16:07:42.753Z,1130
2018-07-26T16:17:58.462Z,1060
2018-07-26T16:28:14.334Z,980
2018-07-26T16:38:28.439Z,945
2018-07-26T16:48:43.418Z,715
2018-07-26T16:58:58.309Z,460
2018-07-26T17:09:13.358Z,350
2018-07-26T17:19:28.142Z,315
2018-07-26T17:29:43.532Z,290
2018-07-26T17:39:58.877Z,255
2018-07-26T17:50:14.068Z,205
2018-07-26T18:00:29.491Z,150
2018-07-26T18:10:43.882Z,130
2018-07-26T18:20:58.525Z,110
2018-07-26T18:31:13.855Z,95
2018-07-26T18:41:27.622Z,85
2018-07-26T18:51:43.326Z,65
2018-07-26T19:01:58.456Z,45
2018-07-26T19:12:12.970Z,30
2018-07-26T19:22:26.863Z,15
2018-07-26T19:32:42.559Z,5
2018-07-26T19:42:57.514Z,0
2018-07-26T19:53:12.913Z,0
2018-07-26T20:03:28.456Z,0
2018-07-26T20:13:42.907Z,0
2018-07-26T20:23:57.579Z,0
2018-07-26T20:34:11.729Z,0
2018-07-26T20:44:27.321Z,0
2018-07-26T20:54:42.820Z,0
2018-07-26T21:04:56.905Z,0
2018-07-26T21:15:11.712Z,0
2018-07-26T21:25:27.064Z,0
2018-07-26T21:35:41.757Z,0
2018-07-26T21:45:56.079Z,0
2018-07-26T21:56:11.076Z,0
2018-07-26T22:06:25.144Z,0
2018-07-26T22:16:39.464Z,0
2018-07-26T22:26:54.415Z,0
2018-07-26T22:37:09.886Z,0
2018-07-26T22:47:25.210Z,0
2018-07-26T22:57:40.806Z,0
2018-07-26T23:07:55.228Z,0
2018-07-26T23:18:09.155Z,0
2018-07-26T23:28:23.813Z,0
2018-07-26T23:38:38.486Z,0
2018-07-26T23:48:54.002Z,0
2018-07-26T23:59:09.036Z,0
